sensor_id;sensor_type;location;lat;lon;timestamp;temperature;humidity
35970;DHT22;22448;51.298;6.430;2023-02-28T00:00:38;-0.50;99.90
35970;DHT22;22448;51.298;6.430;2023-02-28T00:03:05;-0.50;99.90
35970;DHT22;22448;51.298;6.430;2023-02-28T00:05:33;-0.60;99.90
35970;DHT22;22448;51.298;6.430;2023-02-28T00:08:00;-0.70;99.90
35970;DHT22;22448;51.298;6.430;2023-02-28T00:10:29;-0.80;99.90
35970;DHT22;22448;51.298;6.430;2023-02-28T00:13:00;-0.80;99.90
35970;DHT22;22448;51.298;6.430;2023-02-28T00:15:28;-0.80;99.90
35970;DHT22;22448;51.298;6.430;2023-02-28T00:17:55;-0.80;99.90
35970;DHT22;22448;51.298;6.430;2023-02-28T00:20:23;-0.90;99.90
35970;DHT22;22448;51.298;6.430;2023-02-28T00:22:51;-1.00;99.90
35970;DHT22;22448;51.298;6.430;2023-02-28T00:25:22;-1.00;99.90
35970;DHT22;22448;51.298;6.430;2023-02-28T00:27:49;-1.00;99.90
35970;DHT22;22448;51.298;6.430;2023-02-28T00:30:19;-1.00;99.90
35970;DHT22;22448;51.298;6.430;2023-02-28T00:32:46;-1.10;99.90
35970;DHT22;22448;51.298;6.430;2023-02-28T00:35:13;-1.10;99.90
35970;DHT22;22448;51.298;6.430;2023-02-28T00:37:41;-1.00;99.90
35970;DHT22;22448;51.298;6.430;2023-02-28T00:40:09;-1.00;99.90
35970;DHT22;22448;51.298;6.430;2023-02-28T00:42:36;-1.00;99.90
35970;DHT22;22448;51.298;6.430;2023-02-28T00:45:04;-0.90;99.90
35970;DHT22;22448;51.298;6.430;2023-02-28T00:47:32;-0.90;99.90
35970;DHT22;22448;51.298;6.430;2023-02-28T00:49:59;-1.00;99.90
35970;DHT22;22448;51.298;6.430;2023-02-28T00:52:27;-1.00;99.90
35970;DHT22;22448;51.298;6.430;2023-02-28T00:54:54;-0.90;99.90
35970;DHT22;22448;51.298;6.430;2023-02-28T00:57:22;-1.00;99.90
35970;DHT22;22448;51.298;6.430;2023-02-28T00:59:49;-1.00;99.90
35970;DHT22;22448;51.298;6.430;2023-02-28T01:02:16;-1.00;99.90
35970;DHT22;22448;51.298;6.430;2023-02-28T01:04:44;-1.10;99.90
35970;DHT22;22448;51.298;6.430;2023-02-28T01:07:11;-1.10;99.90
35970;DHT22;22448;51.298;6.430;2023-02-28T01:09:38;-1.10;99.90
35970;DHT22;22448;51.298;6.430;2023-02-28T01:12:07;-1.10;99.90
35970;DHT22;22448;51.298;6.430;2023-02-28T01:14:34;-1.00;99.90
35970;DHT22;22448;51.298;6.430;2023-02-28T01:17:02;-1.00;99.90
35970;DHT22;22448;51.298;6.430;2023-02-28T01:19:30;-1.00;99.90
35970;DHT22;22448;51.298;6.430;2023-02-28T01:22:01;-1.00;99.90
35970;DHT22;22448;51.298;6.430;2023-02-28T01:24:28;-1.00;99.90
35970;DHT22;22448;51.298;6.430;2023-02-28T01:26:55;-1.00;99.90
35970;DHT22;22448;51.298;6.430;2023-02-28T01:29:23;-1.00;99.90
35970;DHT22;22448;51.298;6.430;2023-02-28T01:31:51;-1.00;99.90
35970;DHT22;22448;51.298;6.430;2023-02-28T01:34:19;-0.90;99.90
35970;DHT22;22448;51.298;6.430;2023-02-28T01:36:46;-1.00;99.90
35970;DHT22;22448;51.298;6.430;2023-02-28T01:39:13;-1.00;99.90
35970;DHT22;22448;51.298;6.430;2023-02-28T01:41:41;-1.00;99.90
35970;DHT22;22448;51.298;6.430;2023-02-28T01:47:13;-1.10;99.90
35970;DHT22;22448;51.298;6.430;2023-02-28T01:49:40;-1.10;99.90
35970;DHT22;22448;51.298;6.430;2023-02-28T01:52:08;-1.00;99.90
35970;DHT22;22448;51.298;6.430;2023-02-28T01:54:41;-1.00;99.90
35970;DHT22;22448;51.298;6.430;2023-02-28T01:57:17;-1.00;99.90
35970;DHT22;22448;51.298;6.430;2023-02-28T02:00:00;-0.90;99.90
35970;DHT22;22448;51.298;6.430;2023-02-28T02:02:38;-0.90;99.90
35970;DHT22;22448;51.298;6.430;2023-02-28T02:05:12;-0.90;99.90
35970;DHT22;22448;51.298;6.430;2023-02-28T02:07:43;-0.90;99.90
35970;DHT22;22448;51.298;6.430;2023-02-28T02:10:19;-0.90;99.90
35970;DHT22;22448;51.298;6.430;2023-02-28T02:15:56;-1.10;99.90
35970;DHT22;22448;51.298;6.430;2023-02-28T02:21:29;-1.20;99.90
35970;DHT22;22448;51.298;6.430;2023-02-28T02:30:20;-1.30;99.90
35970;DHT22;22448;51.298;6.430;2023-02-28T02:44:16;-1.30;99.90
35970;DHT22;22448;51.298;6.430;2023-02-28T02:46:46;-1.40;99.90
35970;DHT22;22448;51.298;6.430;2023-02-28T02:49:24;-1.40;99.90
35970;DHT22;22448;51.298;6.430;2023-02-28T02:51:55;-1.40;99.90
35970;DHT22;22448;51.298;6.430;2023-02-28T02:54:27;-1.40;99.90
35970;DHT22;22448;51.298;6.430;2023-02-28T02:56:59;-1.50;99.90
35970;DHT22;22448;51.298;6.430;2023-02-28T02:59:28;-1.50;99.90
35970;DHT22;22448;51.298;6.430;2023-02-28T03:01:59;-1.60;99.90
35970;DHT22;22448;51.298;6.430;2023-02-28T03:04:31;-1.60;99.90
35970;DHT22;22448;51.298;6.430;2023-02-28T03:07:00;-1.70;99.90
35970;DHT22;22448;51.298;6.430;2023-02-28T03:09:27;-1.70;99.90
35970;DHT22;22448;51.298;6.430;2023-02-28T03:11:55;-1.80;99.90
35970;DHT22;22448;51.298;6.430;2023-02-28T03:17:08;-1.90;99.90
35970;DHT22;22448;51.298;6.430;2023-02-28T03:22:51;-1.90;99.90
35970;DHT22;22448;51.298;6.430;2023-02-28T03:25:47;-2.00;99.90
35970;DHT22;22448;51.298;6.430;2023-02-28T03:31:07;-2.10;99.90
35970;DHT22;22448;51.298;6.430;2023-02-28T03:33:40;-2.10;99.90
35970;DHT22;22448;51.298;6.430;2023-02-28T03:36:18;-2.10;99.90
35970;DHT22;22448;51.298;6.430;2023-02-28T03:39:05;-2.10;99.90
35970;DHT22;22448;51.298;6.430;2023-02-28T03:44:40;-2.10;99.90
35970;DHT22;22448;51.298;6.430;2023-02-28T03:47:12;-2.10;99.90
35970;DHT22;22448;51.298;6.430;2023-02-28T03:52:38;-2.10;99.90
35970;DHT22;22448;51.298;6.430;2023-02-28T03:55:10;-2.10;99.90
35970;DHT22;22448;51.298;6.430;2023-02-28T04:00:37;-2.00;99.90
35970;DHT22;22448;51.298;6.430;2023-02-28T04:03:05;-1.90;99.90
35970;DHT22;22448;51.298;6.430;2023-02-28T04:05:33;-1.80;99.90
35970;DHT22;22448;51.298;6.430;2023-02-28T04:08:11;-1.70;99.90
35970;DHT22;22448;51.298;6.430;2023-02-28T04:10:38;-1.70;99.90
35970;DHT22;22448;51.298;6.430;2023-02-28T04:13:05;-1.80;99.90
35970;DHT22;22448;51.298;6.430;2023-02-28T04:15:32;-1.70;99.90
35970;DHT22;22448;51.298;6.430;2023-02-28T04:17:59;-1.80;99.90
35970;DHT22;22448;51.298;6.430;2023-02-28T04:20:26;-1.80;99.90
35970;DHT22;22448;51.298;6.430;2023-02-28T04:22:53;-1.80;99.90
35970;DHT22;22448;51.298;6.430;2023-02-28T04:25:20;-1.80;99.90
35970;DHT22;22448;51.298;6.430;2023-02-28T04:27:48;-1.80;99.90
35970;DHT22;22448;51.298;6.430;2023-02-28T04:30:15;-1.80;99.90
35970;DHT22;22448;51.298;6.430;2023-02-28T04:32:42;-1.90;99.90
35970;DHT22;22448;51.298;6.430;2023-02-28T04:35:09;-1.90;99.90
35970;DHT22;22448;51.298;6.430;2023-02-28T04:37:38;-1.90;99.90
35970;DHT22;22448;51.298;6.430;2023-02-28T04:40:05;-1.90;99.90
35970;DHT22;22448;51.298;6.430;2023-02-28T04:42:32;-1.80;99.90
35970;DHT22;22448;51.298;6.430;2023-02-28T04:45:03;-1.80;99.90
35970;DHT22;22448;51.298;6.430;2023-02-28T04:47:30;-1.70;99.90
35970;DHT22;22448;51.298;6.430;2023-02-28T04:49:57;-1.70;99.90
35970;DHT22;22448;51.298;6.430;2023-02-28T04:52:24;-1.70;99.90
35970;DHT22;22448;51.298;6.430;2023-02-28T04:54:53;-1.70;99.90
35970;DHT22;22448;51.298;6.430;2023-02-28T04:57:20;-1.70;99.90
35970;DHT22;22448;51.298;6.430;2023-02-28T04:59:47;-1.70;99.90
35970;DHT22;22448;51.298;6.430;2023-02-28T05:02:14;-1.70;99.90
35970;DHT22;22448;51.298;6.430;2023-02-28T05:04:41;-1.70;99.90
35970;DHT22;22448;51.298;6.430;2023-02-28T05:07:08;-1.80;99.90
35970;DHT22;22448;51.298;6.430;2023-02-28T05:09:36;-1.80;99.90
35970;DHT22;22448;51.298;6.430;2023-02-28T05:12:03;-1.90;99.90
35970;DHT22;22448;51.298;6.430;2023-02-28T05:14:30;-1.90;99.90
35970;DHT22;22448;51.298;6.430;2023-02-28T05:16:57;-1.90;99.90
35970;DHT22;22448;51.298;6.430;2023-02-28T05:19:24;-2.00;99.90
35970;DHT22;22448;51.298;6.430;2023-02-28T05:21:55;-2.00;99.90
35970;DHT22;22448;51.298;6.430;2023-02-28T05:24:22;-2.00;99.90
35970;DHT22;22448;51.298;6.430;2023-02-28T05:26:51;-2.10;99.90
35970;DHT22;22448;51.298;6.430;2023-02-28T05:29:19;-2.10;99.90
35970;DHT22;22448;51.298;6.430;2023-02-28T05:31:46;-2.10;99.90
35970;DHT22;22448;51.298;6.430;2023-02-28T05:34:14;-2.00;99.90
35970;DHT22;22448;51.298;6.430;2023-02-28T05:36:43;-2.00;99.90
35970;DHT22;22448;51.298;6.430;2023-02-28T05:39:10;-2.00;99.90
35970;DHT22;22448;51.298;6.430;2023-02-28T05:41:41;-2.00;99.90
35970;DHT22;22448;51.298;6.430;2023-02-28T05:44:09;-2.10;99.90
35970;DHT22;22448;51.298;6.430;2023-02-28T05:46:36;-2.10;99.90
35970;DHT22;22448;51.298;6.430;2023-02-28T05:49:04;-2.00;99.90
35970;DHT22;22448;51.298;6.430;2023-02-28T05:51:31;-2.00;99.90
35970;DHT22;22448;51.298;6.430;2023-02-28T05:53:59;-2.00;99.90
35970;DHT22;22448;51.298;6.430;2023-02-28T05:56:27;-2.10;99.90
35970;DHT22;22448;51.298;6.430;2023-02-28T05:58:54;-2.10;99.90
35970;DHT22;22448;51.298;6.430;2023-02-28T06:01:31;-2.10;99.90
35970;DHT22;22448;51.298;6.430;2023-02-28T06:04:00;-2.10;99.90
35970;DHT22;22448;51.298;6.430;2023-02-28T06:06:28;-2.10;99.90
35970;DHT22;22448;51.298;6.430;2023-02-28T06:08:56;-2.10;99.90
35970;DHT22;22448;51.298;6.430;2023-02-28T06:11:23;-2.10;99.90
35970;DHT22;22448;51.298;6.430;2023-02-28T06:13:56;-2.10;99.90
35970;DHT22;22448;51.298;6.430;2023-02-28T06:16:24;-2.10;99.90
35970;DHT22;22448;51.298;6.430;2023-02-28T06:18:51;-2.10;99.90
35970;DHT22;22448;51.298;6.430;2023-02-28T06:21:19;-2.10;99.90
35970;DHT22;22448;51.298;6.430;2023-02-28T06:23:46;-2.10;99.90
35970;DHT22;22448;51.298;6.430;2023-02-28T06:26:13;-2.10;99.90
35970;DHT22;22448;51.298;6.430;2023-02-28T06:28:40;-2.00;99.90
35970;DHT22;22448;51.298;6.430;2023-02-28T06:31:09;-2.00;99.90
35970;DHT22;22448;51.298;6.430;2023-02-28T06:33:38;-2.10;99.90
35970;DHT22;22448;51.298;6.430;2023-02-28T06:36:05;-2.10;99.90
35970;DHT22;22448;51.298;6.430;2023-02-28T06:38:33;-2.10;99.90
35970;DHT22;22448;51.298;6.430;2023-02-28T06:41:00;-2.10;99.90
35970;DHT22;22448;51.298;6.430;2023-02-28T06:43:35;-2.10;99.90
35970;DHT22;22448;51.298;6.430;2023-02-28T06:46:05;-2.00;99.90
35970;DHT22;22448;51.298;6.430;2023-02-28T06:48:32;-2.00;99.90
35970;DHT22;22448;51.298;6.430;2023-02-28T06:51:09;-2.00;99.90
35970;DHT22;22448;51.298;6.430;2023-02-28T06:53:37;-1.90;99.90
35970;DHT22;22448;51.298;6.430;2023-02-28T06:56:10;-1.90;99.90
35970;DHT22;22448;51.298;6.430;2023-02-28T06:58:37;-1.90;99.90
35970;DHT22;22448;51.298;6.430;2023-02-28T07:01:07;-1.90;99.90
35970;DHT22;22448;51.298;6.430;2023-02-28T07:03:37;-1.80;99.90
35970;DHT22;22448;51.298;6.430;2023-02-28T07:06:05;-1.80;99.90
35970;DHT22;22448;51.298;6.430;2023-02-28T07:08:33;-1.70;99.90
35970;DHT22;22448;51.298;6.430;2023-02-28T07:11:00;-1.70;99.90
35970;DHT22;22448;51.298;6.430;2023-02-28T07:13:27;-1.60;99.90
35970;DHT22;22448;51.298;6.430;2023-02-28T07:15:55;-1.60;99.90
35970;DHT22;22448;51.298;6.430;2023-02-28T07:18:23;-1.60;99.90
35970;DHT22;22448;51.298;6.430;2023-02-28T07:20:51;-1.50;99.90
35970;DHT22;22448;51.298;6.430;2023-02-28T07:23:18;-1.40;99.90
35970;DHT22;22448;51.298;6.430;2023-02-28T07:25:45;-1.30;99.90
35970;DHT22;22448;51.298;6.430;2023-02-28T07:28:13;-0.10;99.90
35970;DHT22;22448;51.298;6.430;2023-02-28T07:30:41;0.60;99.90
35970;DHT22;22448;51.298;6.430;2023-02-28T07:33:09;0.90;99.90
35970;DHT22;22448;51.298;6.430;2023-02-28T07:35:36;1.30;99.90
35970;DHT22;22448;51.298;6.430;2023-02-28T07:38:04;1.40;99.90
35970;DHT22;22448;51.298;6.430;2023-02-28T07:40:31;1.50;99.90
35970;DHT22;22448;51.298;6.430;2023-02-28T07:42:59;2.30;99.90
35970;DHT22;22448;51.298;6.430;2023-02-28T07:45:27;2.80;99.90
35970;DHT22;22448;51.298;6.430;2023-02-28T07:47:55;2.80;99.90
35970;DHT22;22448;51.298;6.430;2023-02-28T07:50:22;2.50;99.90
35970;DHT22;22448;51.298;6.430;2023-02-28T07:52:52;1.90;99.90
35970;DHT22;22448;51.298;6.430;2023-02-28T07:55:19;2.00;99.90
35970;DHT22;22448;51.298;6.430;2023-02-28T07:57:46;1.90;99.90
35970;DHT22;22448;51.298;6.430;2023-02-28T08:00:13;3.30;99.90
35970;DHT22;22448;51.298;6.430;2023-02-28T08:02:40;2.60;99.90
35970;DHT22;22448;51.298;6.430;2023-02-28T08:05:08;2.50;99.90
35970;DHT22;22448;51.298;6.430;2023-02-28T08:07:35;2.20;99.90
35970;DHT22;22448;51.298;6.430;2023-02-28T08:10:03;2.30;99.90
35970;DHT22;22448;51.298;6.430;2023-02-28T08:12:32;2.30;99.90
35970;DHT22;22448;51.298;6.430;2023-02-28T08:14:59;2.60;99.90
35970;DHT22;22448;51.298;6.430;2023-02-28T08:17:26;3.20;99.90
35970;DHT22;22448;51.298;6.430;2023-02-28T08:19:53;3.20;99.90
35970;DHT22;22448;51.298;6.430;2023-02-28T08:22:20;3.10;99.90
35970;DHT22;22448;51.298;6.430;2023-02-28T08:24:47;3.50;99.90
35970;DHT22;22448;51.298;6.430;2023-02-28T08:27:15;3.60;99.90
35970;DHT22;22448;51.298;6.430;2023-02-28T08:29:42;3.80;99.90
35970;DHT22;22448;51.298;6.430;2023-02-28T08:32:09;4.10;99.90
35970;DHT22;22448;51.298;6.430;2023-02-28T08:34:53;4.30;99.90
35970;DHT22;22448;51.298;6.430;2023-02-28T08:37:20;4.00;99.90
35970;DHT22;22448;51.298;6.430;2023-02-28T08:39:47;4.20;99.90
35970;DHT22;22448;51.298;6.430;2023-02-28T08:42:14;4.40;99.90
35970;DHT22;22448;51.298;6.430;2023-02-28T08:44:41;4.50;99.90
35970;DHT22;22448;51.298;6.430;2023-02-28T08:47:08;4.50;98.80
35970;DHT22;22448;51.298;6.430;2023-02-28T08:49:34;4.80;98.70
35970;DHT22;22448;51.298;6.430;2023-02-28T08:52:02;5.60;98.00
35970;DHT22;22448;51.298;6.430;2023-02-28T08:54:28;6.00;96.30
35970;DHT22;22448;51.298;6.430;2023-02-28T08:56:58;6.40;95.90
35970;DHT22;22448;51.298;6.430;2023-02-28T08:59:25;6.70;94.60
35970;DHT22;22448;51.298;6.430;2023-02-28T09:01:52;6.90;94.00
35970;DHT22;22448;51.298;6.430;2023-02-28T09:04:19;6.70;92.80
35970;DHT22;22448;51.298;6.430;2023-02-28T09:06:46;6.30;93.00
35970;DHT22;22448;51.298;6.430;2023-02-28T09:09:16;6.60;93.70
35970;DHT22;22448;51.298;6.430;2023-02-28T09:11:43;6.30;92.90
35970;DHT22;22448;51.298;6.430;2023-02-28T09:14:10;5.60;92.00
35970;DHT22;22448;51.298;6.430;2023-02-28T09:16:37;5.60;92.30
35970;DHT22;22448;51.298;6.430;2023-02-28T09:19:04;5.30;92.20
35970;DHT22;22448;51.298;6.430;2023-02-28T09:21:31;4.80;92.20
35970;DHT22;22448;51.298;6.430;2023-02-28T09:23:58;4.70;93.20
35970;DHT22;22448;51.298;6.430;2023-02-28T09:26:27;4.80;92.90
35970;DHT22;22448;51.298;6.430;2023-02-28T09:29:08;4.70;92.30
35970;DHT22;22448;51.298;6.430;2023-02-28T09:31:35;4.50;93.20
35970;DHT22;22448;51.298;6.430;2023-02-28T09:34:04;4.50;94.00
35970;DHT22;22448;51.298;6.430;2023-02-28T09:36:31;4.40;93.50
35970;DHT22;22448;51.298;6.430;2023-02-28T09:39:11;4.20;94.50
35970;DHT22;22448;51.298;6.430;2023-02-28T09:41:44;4.00;94.20
35970;DHT22;22448;51.298;6.430;2023-02-28T09:46:58;3.60;94.40
35970;DHT22;22448;51.298;6.430;2023-02-28T09:49:34;3.60;95.40
35970;DHT22;22448;51.298;6.430;2023-02-28T09:52:05;3.70;95.70
35970;DHT22;22448;51.298;6.430;2023-02-28T09:54:36;3.70;94.90
35970;DHT22;22448;51.298;6.430;2023-02-28T09:57:18;3.60;94.40
35970;DHT22;22448;51.298;6.430;2023-02-28T10:00:00;3.50;95.00
35970;DHT22;22448;51.298;6.430;2023-02-28T10:05:33;3.70;94.70
35970;DHT22;22448;51.298;6.430;2023-02-28T10:08:18;4.00;95.10
35970;DHT22;22448;51.298;6.430;2023-02-28T10:10:50;4.30;95.20
35970;DHT22;22448;51.298;6.430;2023-02-28T10:13:36;4.30;94.10
35970;DHT22;22448;51.298;6.430;2023-02-28T10:16:13;4.40;94.50
35970;DHT22;22448;51.298;6.430;2023-02-28T10:18:54;4.30;94.30
35970;DHT22;22448;51.298;6.430;2023-02-28T10:21:26;4.00;93.80
35970;DHT22;22448;51.298;6.430;2023-02-28T10:24:02;3.70;94.90
35970;DHT22;22448;51.298;6.430;2023-02-28T10:26:32;3.60;95.60
35970;DHT22;22448;51.298;6.430;2023-02-28T10:28:59;3.30;95.30
35970;DHT22;22448;51.298;6.430;2023-02-28T10:31:26;3.00;96.40
35970;DHT22;22448;51.298;6.430;2023-02-28T10:33:53;2.80;96.80
35970;DHT22;22448;51.298;6.430;2023-02-28T10:36:21;2.70;96.90
35970;DHT22;22448;51.298;6.430;2023-02-28T10:38:48;2.70;97.30
35970;DHT22;22448;51.298;6.430;2023-02-28T10:41:32;2.70;97.20
35970;DHT22;22448;51.298;6.430;2023-02-28T10:46:40;3.00;96.70
35970;DHT22;22448;51.298;6.430;2023-02-28T10:49:23;3.20;95.80
35970;DHT22;22448;51.298;6.430;2023-02-28T10:51:56;3.10;96.40
35970;DHT22;22448;51.298;6.430;2023-02-28T10:54:34;3.40;96.00
35970;DHT22;22448;51.298;6.430;2023-02-28T10:57:23;3.60;95.90
35970;DHT22;22448;51.298;6.430;2023-02-28T11:00:14;3.70;95.90
35970;DHT22;22448;51.298;6.430;2023-02-28T11:02:41;3.80;95.10
35970;DHT22;22448;51.298;6.430;2023-02-28T11:05:25;4.00;95.10
35970;DHT22;22448;51.298;6.430;2023-02-28T11:08:16;4.20;94.60
35970;DHT22;22448;51.298;6.430;2023-02-28T11:10:54;4.20;94.50
35970;DHT22;22448;51.298;6.430;2023-02-28T11:13:24;4.10;94.60
35970;DHT22;22448;51.298;6.430;2023-02-28T11:15:58;4.10;94.30
35970;DHT22;22448;51.298;6.430;2023-02-28T11:20:58;4.40;94.60
35970;DHT22;22448;51.298;6.430;2023-02-28T11:23:27;4.50;94.60
35970;DHT22;22448;51.298;6.430;2023-02-28T11:25:58;4.60;94.70
35970;DHT22;22448;51.298;6.430;2023-02-28T11:28:34;4.50;93.20
35970;DHT22;22448;51.298;6.430;2023-02-28T11:31:05;4.50;93.30
35970;DHT22;22448;51.298;6.430;2023-02-28T11:33:45;4.50;93.50
35970;DHT22;22448;51.298;6.430;2023-02-28T11:36:16;4.50;93.80
35970;DHT22;22448;51.298;6.430;2023-02-28T11:38:48;4.50;93.80
35970;DHT22;22448;51.298;6.430;2023-02-28T11:41:31;4.40;93.30
35970;DHT22;22448;51.298;6.430;2023-02-28T11:46:51;4.20;93.40
35970;DHT22;22448;51.298;6.430;2023-02-28T11:52:05;4.20;93.60
35970;DHT22;22448;51.298;6.430;2023-02-28T12:00:43;5.00;93.40
35970;DHT22;22448;51.298;6.430;2023-02-28T12:06:30;5.60;94.20
35970;DHT22;22448;51.298;6.430;2023-02-28T12:09:14;5.30;92.20
35970;DHT22;22448;51.298;6.430;2023-02-28T12:11:56;5.10;93.10
35970;DHT22;22448;51.298;6.430;2023-02-28T12:20:04;5.20;93.20
35970;DHT22;22448;51.298;6.430;2023-02-28T12:26:02;5.40;93.40
35970;DHT22;22448;51.298;6.430;2023-02-28T12:28:41;5.50;93.50
35970;DHT22;22448;51.298;6.430;2023-02-28T12:31:20;5.30;93.50
35970;DHT22;22448;51.298;6.430;2023-02-28T12:33:52;5.10;92.60
35970;DHT22;22448;51.298;6.430;2023-02-28T12:36:20;5.00;93.00
35970;DHT22;22448;51.298;6.430;2023-02-28T12:39:01;4.90;93.10
35970;DHT22;22448;51.298;6.430;2023-02-28T12:44:06;5.00;93.80
35970;DHT22;22448;51.298;6.430;2023-02-28T12:46:38;5.00;94.30
35970;DHT22;22448;51.298;6.430;2023-02-28T12:52:07;5.00;93.70
35970;DHT22;22448;51.298;6.430;2023-02-28T12:54:49;5.00;93.60
35970;DHT22;22448;51.298;6.430;2023-02-28T12:57:27;5.10;94.40
35970;DHT22;22448;51.298;6.430;2023-02-28T13:00:03;5.30;93.40
35970;DHT22;22448;51.298;6.430;2023-02-28T13:05:19;5.30;92.60
35970;DHT22;22448;51.298;6.430;2023-02-28T13:10:47;5.20;93.70
35970;DHT22;22448;51.298;6.430;2023-02-28T13:13:26;5.20;93.80
35970;DHT22;22448;51.298;6.430;2023-02-28T13:16:08;5.20;93.10
35970;DHT22;22448;51.298;6.430;2023-02-28T13:18:46;5.20;93.40
35970;DHT22;22448;51.298;6.430;2023-02-28T13:21:30;5.30;93.00
35970;DHT22;22448;51.298;6.430;2023-02-28T13:24:03;5.20;93.10
35970;DHT22;22448;51.298;6.430;2023-02-28T13:29:00;5.10;93.20
35970;DHT22;22448;51.298;6.430;2023-02-28T13:31:27;5.20;93.20
35970;DHT22;22448;51.298;6.430;2023-02-28T13:36:31;5.30;94.30
35970;DHT22;22448;51.298;6.430;2023-02-28T13:39:03;5.40;94.60
35970;DHT22;22448;51.298;6.430;2023-02-28T13:41:47;5.50;93.30
35970;DHT22;22448;51.298;6.430;2023-02-28T13:44:23;5.50;93.40
35970;DHT22;22448;51.298;6.430;2023-02-28T14:05:22;5.50;93.10
35970;DHT22;22448;51.298;6.430;2023-02-28T14:08:21;5.50;93.50
35970;DHT22;22448;51.298;6.430;2023-02-28T14:11:02;5.60;93.50
35970;DHT22;22448;51.298;6.430;2023-02-28T14:13:43;5.60;92.70
35970;DHT22;22448;51.298;6.430;2023-02-28T14:16:18;5.60;93.30
35970;DHT22;22448;51.298;6.430;2023-02-28T14:18:58;5.70;93.10
35970;DHT22;22448;51.298;6.430;2023-02-28T14:21:34;5.60;92.60
35970;DHT22;22448;51.298;6.430;2023-02-28T14:35:29;5.90;93.40
35970;DHT22;22448;51.298;6.430;2023-02-28T14:38:06;6.00;93.20
35970;DHT22;22448;51.298;6.430;2023-02-28T14:40:40;6.10;93.20
35970;DHT22;22448;51.298;6.430;2023-02-28T14:43:23;6.20;93.40
35970;DHT22;22448;51.298;6.430;2023-02-28T14:45:56;6.30;92.80
35970;DHT22;22448;51.298;6.430;2023-02-28T14:48:24;6.10;92.70
35970;DHT22;22448;51.298;6.430;2023-02-28T14:50:57;6.00;92.70
35970;DHT22;22448;51.298;6.430;2023-02-28T14:53:29;5.80;93.00
35970;DHT22;22448;51.298;6.430;2023-02-28T14:55:56;5.80;93.40
35970;DHT22;22448;51.298;6.430;2023-02-28T14:58:29;5.60;93.40
35970;DHT22;22448;51.298;6.430;2023-02-28T15:00:59;5.60;94.00
35970;DHT22;22448;51.298;6.430;2023-02-28T15:03:31;5.60;94.40
35970;DHT22;22448;51.298;6.430;2023-02-28T15:06:12;5.60;94.40
35970;DHT22;22448;51.298;6.430;2023-02-28T15:08:40;5.60;94.30
35970;DHT22;22448;51.298;6.430;2023-02-28T15:11:18;5.60;94.30
35970;DHT22;22448;51.298;6.430;2023-02-28T15:13:56;5.60;94.40
35970;DHT22;22448;51.298;6.430;2023-02-28T15:16:31;5.60;95.40
35970;DHT22;22448;51.298;6.430;2023-02-28T15:19:02;5.50;94.60
35970;DHT22;22448;51.298;6.430;2023-02-28T15:21:35;5.50;94.20
35970;DHT22;22448;51.298;6.430;2023-02-28T15:26:37;5.50;95.20
35970;DHT22;22448;51.298;6.430;2023-02-28T15:29:07;5.30;96.00
35970;DHT22;22448;51.298;6.430;2023-02-28T15:31:41;5.30;95.90
35970;DHT22;22448;51.298;6.430;2023-02-28T15:34:41;5.30;96.50
35970;DHT22;22448;51.298;6.430;2023-02-28T15:40:31;5.10;96.20
35970;DHT22;22448;51.298;6.430;2023-02-28T15:43:17;5.00;96.10
35970;DHT22;22448;51.298;6.430;2023-02-28T15:45:51;5.00;96.70
35970;DHT22;22448;51.298;6.430;2023-02-28T15:48:22;5.00;96.70
35970;DHT22;22448;51.298;6.430;2023-02-28T15:50:52;4.90;97.00
35970;DHT22;22448;51.298;6.430;2023-02-28T15:53:27;4.80;96.60
35970;DHT22;22448;51.298;6.430;2023-02-28T15:55:59;4.80;97.00
35970;DHT22;22448;51.298;6.430;2023-02-28T15:58:27;4.70;97.00
35970;DHT22;22448;51.298;6.430;2023-02-28T16:01:24;4.70;97.10
35970;DHT22;22448;51.298;6.430;2023-02-28T16:03:55;4.60;97.30
35970;DHT22;22448;51.298;6.430;2023-02-28T16:09:00;4.50;98.10
35970;DHT22;22448;51.298;6.430;2023-02-28T16:11:27;4.50;98.10
35970;DHT22;22448;51.298;6.430;2023-02-28T16:13:55;4.40;98.10
35970;DHT22;22448;51.298;6.430;2023-02-28T16:16:24;4.40;98.30
35970;DHT22;22448;51.298;6.430;2023-02-28T16:18:52;4.30;98.40
35970;DHT22;22448;51.298;6.430;2023-02-28T16:21:19;4.20;98.50
35970;DHT22;22448;51.298;6.430;2023-02-28T16:23:46;4.20;99.20
35970;DHT22;22448;51.298;6.430;2023-02-28T16:26:23;4.10;99.20
35970;DHT22;22448;51.298;6.430;2023-02-28T16:28:51;4.10;99.00
35970;DHT22;22448;51.298;6.430;2023-02-28T16:31:19;4.10;99.70
35970;DHT22;22448;51.298;6.430;2023-02-28T16:33:47;4.10;99.40
35970;DHT22;22448;51.298;6.430;2023-02-28T16:36:20;4.00;99.40
35970;DHT22;22448;51.298;6.430;2023-02-28T16:38:47;4.00;99.90
35970;DHT22;22448;51.298;6.430;2023-02-28T16:41:23;4.00;99.90
35970;DHT22;22448;51.298;6.430;2023-02-28T16:43:54;3.90;99.90
35970;DHT22;22448;51.298;6.430;2023-02-28T16:46:30;3.80;99.90
35970;DHT22;22448;51.298;6.430;2023-02-28T16:48:58;3.80;99.90
35970;DHT22;22448;51.298;6.430;2023-02-28T16:51:25;3.70;99.90
35970;DHT22;22448;51.298;6.430;2023-02-28T16:53:52;3.60;99.90
35970;DHT22;22448;51.298;6.430;2023-02-28T16:56:22;3.60;99.90
35970;DHT22;22448;51.298;6.430;2023-02-28T16:58:50;3.60;99.90
35970;DHT22;22448;51.298;6.430;2023-02-28T17:01:19;3.60;99.90
35970;DHT22;22448;51.298;6.430;2023-02-28T17:03:49;3.50;99.90
35970;DHT22;22448;51.298;6.430;2023-02-28T17:06:20;3.50;99.90
35970;DHT22;22448;51.298;6.430;2023-02-28T17:08:49;3.40;99.90
35970;DHT22;22448;51.298;6.430;2023-02-28T17:11:17;3.30;99.90
35970;DHT22;22448;51.298;6.430;2023-02-28T17:13:44;3.20;99.90
35970;DHT22;22448;51.298;6.430;2023-02-28T17:16:36;3.20;99.90
35970;DHT22;22448;51.298;6.430;2023-02-28T17:19:05;3.20;99.90
35970;DHT22;22448;51.298;6.430;2023-02-28T17:21:33;3.10;99.90
35970;DHT22;22448;51.298;6.430;2023-02-28T17:24:00;3.10;99.90
35970;DHT22;22448;51.298;6.430;2023-02-28T17:26:27;3.00;99.90
35970;DHT22;22448;51.298;6.430;2023-02-28T17:28:56;2.90;99.90
35970;DHT22;22448;51.298;6.430;2023-02-28T17:31:24;2.90;99.90
35970;DHT22;22448;51.298;6.430;2023-02-28T17:33:52;2.90;99.90
35970;DHT22;22448;51.298;6.430;2023-02-28T17:36:25;2.80;99.90
35970;DHT22;22448;51.298;6.430;2023-02-28T17:38:55;2.80;99.90
35970;DHT22;22448;51.298;6.430;2023-02-28T17:41:23;2.80;99.90
35970;DHT22;22448;51.298;6.430;2023-02-28T17:43:50;2.70;99.90
35970;DHT22;22448;51.298;6.430;2023-02-28T17:46:20;2.70;99.90
35970;DHT22;22448;51.298;6.430;2023-02-28T17:48:52;2.70;99.90
35970;DHT22;22448;51.298;6.430;2023-02-28T17:51:23;2.60;99.90
35970;DHT22;22448;51.298;6.430;2023-02-28T17:53:50;2.60;99.90
35970;DHT22;22448;51.298;6.430;2023-02-28T17:56:21;2.60;99.90
35970;DHT22;22448;51.298;6.430;2023-02-28T17:58:50;2.60;99.90
35970;DHT22;22448;51.298;6.430;2023-02-28T18:01:18;2.60;99.90
35970;DHT22;22448;51.298;6.430;2023-02-28T18:03:47;2.50;99.90
35970;DHT22;22448;51.298;6.430;2023-02-28T18:06:19;2.50;99.90
35970;DHT22;22448;51.298;6.430;2023-02-28T18:08:47;2.40;99.90
35970;DHT22;22448;51.298;6.430;2023-02-28T18:11:14;2.40;99.90
35970;DHT22;22448;51.298;6.430;2023-02-28T18:13:45;2.40;99.90
35970;DHT22;22448;51.298;6.430;2023-02-28T18:16:13;2.40;99.90